Time;durP1;ratioP1;P1;durP2;ratioP2;P2;SDS_P1;SDS_P2;PMS_P1;PMS_P2;Temp;Humidity;BMP_temperature;BMP_pressure;BME280_temperature;BME280_humidity;BME280_pressure;Samples;Min_cycle;Max_cycle;Signal;HPM_P1;HPM_P2
2021/12/01 00:00:05;;;;;;;18.70;8.35;;;;;;;;;;4973441;28;20046;-80
2021/12/01 00:02:31;;;;;;;19.25;7.70;;;;;;;;;;4970088;28;20074;-80
2021/12/01 00:04:57;;;;;;;21.65;8.10;;;;;;;;;;4971665;28;20042;-80
2021/12/01 00:07:23;;;;;;;19.55;8.02;;;;;;;;;;4969121;28;20058;-79
2021/12/01 00:09:51;;;;;;;24.08;6.47;;;;;;;;;;4973458;28;20554;-80
2021/12/01 00:12:17;;;;;;;17.25;6.22;;;;;;;;;;4970710;28;20072;-79
2021/12/01 00:14:43;;;;;;;19.27;5.68;;;;;;;;;;4970441;28;20445;-80
2021/12/01 00:17:11;;;;;;;19.60;7.05;;;;;;;;;;4970602;28;20055;-80
2021/12/01 00:19:37;;;;;;;20.77;5.53;;;;;;;;;;4973119;28;20058;-80
2021/12/01 00:22:03;;;;;;;17.20;5.40;;;;;;;;;;4959658;28;20134;-80
2021/12/01 00:24:30;;;;;;;18.05;5.88;;;;;;;;;;4966631;28;20132;-80
2021/12/01 00:26:58;;;;;;;21.20;6.18;;;;;;;;;;4968873;28;20049;-80
2021/12/01 00:29:24;;;;;;;15.15;6.15;;;;;;;;;;4970029;28;20454;-80
2021/12/01 00:31:50;;;;;;;23.20;6.95;;;;;;;;;;4985621;28;20053;-80
2021/12/01 00:34:16;;;;;;;19.08;6.15;;;;;;;;;;4990136;28;20062;-79
2021/12/01 00:36:43;;;;;;;20.52;6.40;;;;;;;;;;4971631;28;20041;-79
2021/12/01 00:39:09;;;;;;;18.85;6.05;;;;;;;;;;4969455;28;20065;-79
2021/12/01 00:41:34;;;;;;;23.92;7.43;;;;;;;;;;4970613;28;20035;-79
2021/12/01 00:44:01;;;;;;;18.60;6.18;;;;;;;;;;4973118;28;20527;-79
2021/12/01 00:49:02;;;;;;;14.80;6.57;;;;;;;;;;4992770;28;20398;-80
2021/12/01 00:51:28;;;;;;;17.85;6.55;;;;;;;;;;4982196;28;20049;-79
2021/12/01 00:53:54;;;;;;;17.80;6.25;;;;;;;;;;4968730;28;20051;-80
2021/12/01 00:56:20;;;;;;;18.27;6.35;;;;;;;;;;4977682;28;20035;-80
2021/12/01 00:58:46;;;;;;;17.27;6.18;;;;;;;;;;4973650;28;20061;-80
2021/12/01 01:01:12;;;;;;;20.85;7.70;;;;;;;;;;4971334;28;20486;-79
2021/12/01 01:03:38;;;;;;;17.35;6.20;;;;;;;;;;4972165;28;20056;-80
2021/12/01 01:06:04;;;;;;;19.70;6.13;;;;;;;;;;4972579;28;20065;-79
2021/12/01 01:08:31;;;;;;;21.52;6.28;;;;;;;;;;4974834;28;20054;-80
2021/12/01 01:11:09;;;;;;;16.75;5.47;;;;;;;;;;4976240;28;20045;-80
2021/12/01 01:16:25;;;;;;;20.55;5.85;;;;;;;;;;4979302;28;20074;-79
2021/12/01 01:19:00;;;;;;;14.93;4.80;;;;;;;;;;4972912;28;20058;-79
2021/12/01 01:21:27;;;;;;;16.65;4.82;;;;;;;;;;4973456;28;20041;-80
2021/12/01 01:23:54;;;;;;;14.07;4.78;;;;;;;;;;4971603;28;20054;-80
2021/12/01 01:26:20;;;;;;;14.13;4.63;;;;;;;;;;4968481;28;20055;-79
2021/12/01 01:28:46;;;;;;;17.25;4.93;;;;;;;;;;4972188;28;20085;-80
2021/12/01 01:31:13;;;;;;;19.45;5.07;;;;;;;;;;4969714;28;20053;-80
2021/12/01 01:33:39;;;;;;;17.85;4.78;;;;;;;;;;4973271;28;20076;-80
2021/12/01 01:36:05;;;;;;;13.68;4.63;;;;;;;;;;4973188;28;20042;-80
2021/12/01 01:38:32;;;;;;;14.60;4.30;;;;;;;;;;4974785;28;20387;-80
2021/12/01 01:41:03;;;;;;;19.48;4.72;;;;;;;;;;4974575;28;20034;-80
2021/12/01 01:43:29;;;;;;;18.08;4.70;;;;;;;;;;4986876;28;20046;-79
2021/12/01 01:45:57;;;;;;;11.98;3.80;;;;;;;;;;4989631;28;20121;-79
2021/12/01 01:48:30;;;;;;;14.60;4.57;;;;;;;;;;4970667;28;20365;-80
2021/12/01 01:50:57;;;;;;;19.77;4.53;;;;;;;;;;4970953;28;20129;-80
2021/12/01 01:53:24;;;;;;;13.63;4.03;;;;;;;;;;4971007;28;20042;-80
2021/12/01 01:55:52;;;;;;;20.05;4.32;;;;;;;;;;4973283;28;20081;-80
2021/12/01 01:58:18;;;;;;;14.75;4.25;;;;;;;;;;4970498;28;20530;-80
2021/12/01 02:00:51;;;;;;;17.17;4.32;;;;;;;;;;4970659;28;20066;-80
2021/12/01 02:03:18;;;;;;;16.40;4.60;;;;;;;;;;4969650;28;20493;-80
2021/12/01 02:05:44;;;;;;;18.70;4.50;;;;;;;;;;4974747;28;20069;-80
2021/12/01 02:08:17;;;;;;;17.13;4.38;;;;;;;;;;4989266;28;20096;-79
2021/12/01 02:10:46;;;;;;;22.88;4.20;;;;;;;;;;4971730;28;20049;-80
2021/12/01 02:13:12;;;;;;;19.45;4.18;;;;;;;;;;4970754;28;20054;-79
2021/12/01 02:15:41;;;;;;;22.90;5.22;;;;;;;;;;4967845;28;20049;-80
2021/12/01 02:18:07;;;;;;;21.13;4.60;;;;;;;;;;4972361;28;20398;-79
2021/12/01 02:20:33;;;;;;;19.50;4.15;;;;;;;;;;4978464;28;20029;-80
2021/12/01 02:23:00;;;;;;;15.05;3.70;;;;;;;;;;4969314;28;20406;-80
2021/12/01 02:25:26;;;;;;;18.58;4.57;;;;;;;;;;4968382;28;20105;-80
2021/12/01 02:27:52;;;;;;;17.90;4.15;;;;;;;;;;4969547;28;20050;-80
2021/12/01 02:30:18;;;;;;;21.80;4.38;;;;;;;;;;4969118;28;20039;-81
2021/12/01 02:32:45;;;;;;;17.85;4.10;;;;;;;;;;4972634;28;20081;-80
2021/12/01 02:35:11;;;;;;;16.88;3.85;;;;;;;;;;4986515;28;20078;-80
2021/12/01 02:37:37;;;;;;;10.50;3.75;;;;;;;;;;4986963;28;20591;-80
2021/12/01 02:40:04;;;;;;;22.15;4.13;;;;;;;;;;4990173;28;20386;-80
2021/12/01 02:42:30;;;;;;;16.52;4.03;;;;;;;;;;4972061;28;20113;-80
2021/12/01 02:44:57;;;;;;;19.58;5.07;;;;;;;;;;4977532;28;20081;-80
2021/12/01 02:47:25;;;;;;;19.30;4.20;;;;;;;;;;4970917;28;20446;-81
2021/12/01 02:49:55;;;;;;;14.30;3.88;;;;;;;;;;4967915;28;20054;-81
2021/12/01 02:52:22;;;;;;;16.60;4.55;;;;;;;;;;4972994;28;20085;-80
2021/12/01 02:54:49;;;;;;;13.27;3.85;;;;;;;;;;4962267;28;20116;-80
2021/12/01 02:57:15;;;;;;;21.95;3.88;;;;;;;;;;4957675;28;20688;-80
2021/12/01 02:59:41;;;;;;;18.00;4.38;;;;;;;;;;4972962;28;20050;-80
2021/12/01 03:02:08;;;;;;;18.85;3.83;;;;;;;;;;4972992;28;20101;-80
2021/12/01 03:04:35;;;;;;;18.88;3.90;;;;;;;;;;4956427;28;20058;-80
2021/12/01 03:07:02;;;;;;;17.30;3.47;;;;;;;;;;4972873;28;20054;-80
2021/12/01 03:09:28;;;;;;;22.17;4.13;;;;;;;;;;4973277;28;20053;-80
2021/12/01 03:11:54;;;;;;;18.23;4.78;;;;;;;;;;4969960;28;20134;-81
2021/12/01 03:14:20;;;;;;;18.05;3.95;;;;;;;;;;4969462;28;20064;-80
2021/12/01 03:16:49;;;;;;;21.73;4.05;;;;;;;;;;4971752;28;20045;-80
2021/12/01 03:19:15;;;;;;;14.85;3.45;;;;;;;;;;4969249;28;20086;-81
2021/12/01 03:21:42;;;;;;;23.27;4.88;;;;;;;;;;4972070;28;20154;-80
2021/12/01 03:24:08;;;;;;;23.17;5.63;;;;;;;;;;4971088;28;20454;-80
2021/12/01 03:26:35;;;;;;;26.20;4.53;;;;;;;;;;4958292;28;20134;-80
2021/12/01 03:29:01;;;;;;;23.63;5.22;;;;;;;;;;4969567;28;20038;-81
2021/12/01 03:31:27;;;;;;;25.10;5.32;;;;;;;;;;4970908;28;20138;-80
2021/12/01 03:33:53;;;;;;;21.63;4.80;;;;;;;;;;4960847;28;20521;-80
2021/12/01 03:36:19;;;;;;;23.98;5.35;;;;;;;;;;4968653;28;20417;-80
2021/12/01 03:38:47;;;;;;;23.10;4.88;;;;;;;;;;4968636;28;20577;-80
2021/12/01 03:41:13;;;;;;;25.10;4.85;;;;;;;;;;4985026;28;20121;-80
2021/12/01 03:43:39;;;;;;;24.80;4.88;;;;;;;;;;4971144;28;20581;-80
2021/12/01 03:46:05;;;;;;;23.25;5.93;;;;;;;;;;4968174;28;20046;-80
2021/12/01 03:48:31;;;;;;;25.15;5.82;;;;;;;;;;4971567;28;20041;-80
2021/12/01 03:50:58;;;;;;;27.65;5.60;;;;;;;;;;4966337;28;20044;-80
2021/12/01 03:53:24;;;;;;;28.15;5.50;;;;;;;;;;4972079;28;20141;-80
2021/12/01 03:55:51;;;;;;;21.52;5.32;;;;;;;;;;4968403;28;20486;-80
2021/12/01 03:58:17;;;;;;;28.30;6.43;;;;;;;;;;4971501;28;20054;-80
2021/12/01 04:00:44;;;;;;;35.38;6.47;;;;;;;;;;4968893;28;20101;-80
2021/12/01 04:03:10;;;;;;;36.85;6.20;;;;;;;;;;4968898;28;20494;-79
2021/12/01 04:05:36;;;;;;;25.27;6.53;;;;;;;;;;4967483;28;20482;-80
2021/12/01 04:08:03;;;;;;;37.42;6.43;;;;;;;;;;4981147;28;20058;-79
2021/12/01 04:10:29;;;;;;;31.17;6.40;;;;;;;;;;4971180;28;20053;-79
2021/12/01 04:12:58;;;;;;;34.67;7.45;;;;;;;;;;4969050;28;20081;-79
2021/12/01 04:15:24;;;;;;;32.97;6.57;;;;;;;;;;4967689;28;20050;-79
2021/12/01 04:17:53;;;;;;;35.97;5.80;;;;;;;;;;4971601;28;20037;-78
2021/12/01 04:20:19;;;;;;;40.35;7.47;;;;;;;;;;4973582;28;22088;-79
2021/12/01 04:22:49;;;;;;;27.00;6.80;;;;;;;;;;4976566;28;20050;-79
2021/12/01 04:25:15;;;;;;;38.72;6.57;;;;;;;;;;4971587;28;20047;-79
2021/12/01 04:27:41;;;;;;;34.92;6.70;;;;;;;;;;4975443;28;20097;-79
2021/12/01 04:30:11;;;;;;;22.00;5.18;;;;;;;;;;4972257;28;20038;-80
2021/12/01 04:32:37;;;;;;;29.67;5.65;;;;;;;;;;4974858;28;20097;-80
2021/12/01 04:35:04;;;;;;;43.30;7.72;;;;;;;;;;4977281;28;20086;-80
2021/12/01 04:37:30;;;;;;;39.00;6.75;;;;;;;;;;4971774;28;20435;-79
2021/12/01 04:39:56;;;;;;;29.25;7.05;;;;;;;;;;5000632;28;20486;-80
2021/12/01 04:42:22;;;;;;;30.80;5.38;;;;;;;;;;4971968;28;20048;-80
2021/12/01 04:44:49;;;;;;;32.90;6.63;;;;;;;;;;4978325;28;20076;-79
2021/12/01 04:47:18;;;;;;;30.88;5.85;;;;;;;;;;4974837;28;20088;-80
2021/12/01 04:49:44;;;;;;;28.17;6.07;;;;;;;;;;4977343;28;20470;-80
2021/12/01 04:52:11;;;;;;;23.75;5.65;;;;;;;;;;4975430;28;20141;-80
2021/12/01 04:54:38;;;;;;;32.67;5.85;;;;;;;;;;4969465;28;20430;-80
2021/12/01 04:57:05;;;;;;;23.48;5.20;;;;;;;;;;4975460;28;20030;-79
2021/12/01 04:59:32;;;;;;;22.52;5.13;;;;;;;;;;4975191;28;20049;-79
2021/12/01 05:01:58;;;;;;;26.13;4.68;;;;;;;;;;4973019;28;20482;-79
2021/12/01 05:04:24;;;;;;;21.10;4.45;;;;;;;;;;4975602;28;20141;-80
2021/12/01 05:06:50;;;;;;;21.08;4.78;;;;;;;;;;4956110;28;20551;-79
2021/12/01 05:09:16;;;;;;;28.75;4.30;;;;;;;;;;4971489;28;20539;-80
2021/12/01 05:11:42;;;;;;;23.15;5.38;;;;;;;;;;4976692;28;20551;-79
2021/12/01 05:14:09;;;;;;;20.80;4.05;;;;;;;;;;4955766;28;20059;-79
2021/12/01 05:16:36;;;;;;;20.38;4.68;;;;;;;;;;4958644;28;20050;-80
2021/12/01 05:19:05;;;;;;;23.23;4.68;;;;;;;;;;4958415;28;20104;-80
2021/12/01 05:21:31;;;;;;;23.02;5.65;;;;;;;;;;4953698;28;20054;-80
2021/12/01 05:23:57;;;;;;;17.58;4.38;;;;;;;;;;4953041;28;20043;-80
2021/12/01 05:26:23;;;;;;;19.55;4.88;;;;;;;;;;4955338;28;20635;-81
2021/12/01 05:28:49;;;;;;;20.42;5.80;;;;;;;;;;4952927;28;20045;-79
2021/12/01 05:31:15;;;;;;;17.30;5.40;;;;;;;;;;4955371;28;20058;-80
2021/12/01 05:33:41;;;;;;;13.98;3.22;;;;;;;;;;4953377;28;20106;-79
2021/12/01 05:36:08;;;;;;;16.38;4.15;;;;;;;;;;4954220;28;20487;-79
2021/12/01 05:38:38;;;;;;;23.83;3.97;;;;;;;;;;4956960;28;20090;-80
2021/12/01 05:41:05;;;;;;;19.23;3.88;;;;;;;;;;4968621;28;20176;-80
2021/12/01 05:43:32;;;;;;;20.80;3.50;;;;;;;;;;4951042;28;20047;-79
2021/12/01 05:45:58;;;;;;;15.25;3.33;;;;;;;;;;4956134;28;20053;-80
2021/12/01 05:48:24;;;;;;;25.70;4.40;;;;;;;;;;4955459;28;20503;-79
2021/12/01 05:50:50;;;;;;;17.83;3.97;;;;;;;;;;4952205;28;20106;-79
2021/12/01 05:53:16;;;;;;;20.23;4.07;;;;;;;;;;4947515;28;20492;-80
2021/12/01 05:55:42;;;;;;;26.35;4.97;;;;;;;;;;4969740;28;20078;-80
2021/12/01 05:58:11;;;;;;;18.50;4.28;;;;;;;;;;4968651;28;20063;-79
2021/12/01 06:00:37;;;;;;;16.05;3.55;;;;;;;;;;4972374;28;20043;-79
2021/12/01 06:03:03;;;;;;;14.30;3.80;;;;;;;;;;4949911;28;20407;-80
2021/12/01 06:05:29;;;;;;;16.50;3.72;;;;;;;;;;4951932;28;20038;-80
2021/12/01 06:07:55;;;;;;;18.70;3.70;;;;;;;;;;4951914;28;20462;-81
2021/12/01 06:10:22;;;;;;;24.52;4.85;;;;;;;;;;4954895;28;20494;-80
2021/12/01 06:12:48;;;;;;;28.17;7.13;;;;;;;;;;4950496;28;20058;-80
2021/12/01 06:15:15;;;;;;;24.60;5.72;;;;;;;;;;4951140;28;20050;-79
2021/12/01 06:17:41;;;;;;;20.73;4.30;;;;;;;;;;4929671;28;20050;-79
2021/12/01 06:20:09;;;;;;;24.23;4.68;;;;;;;;;;4944884;28;20065;-80
2021/12/01 06:22:35;;;;;;;24.10;4.63;;;;;;;;;;4941852;28;20051;-81
2021/12/01 06:25:01;;;;;;;22.30;4.40;;;;;;;;;;4946438;28;20129;-80
2021/12/01 06:27:27;;;;;;;21.52;4.65;;;;;;;;;;4973719;28;20101;-81
2021/12/01 06:29:53;;;;;;;26.13;5.13;;;;;;;;;;4950836;28;20471;-80
2021/12/01 06:32:19;;;;;;;19.25;4.93;;;;;;;;;;4949543;28;20042;-80
2021/12/01 06:34:45;;;;;;;23.42;4.90;;;;;;;;;;4952416;28;20058;-80
2021/12/01 06:37:11;;;;;;;27.10;4.95;;;;;;;;;;4955010;28;20055;-81
2021/12/01 06:39:40;;;;;;;20.92;4.63;;;;;;;;;;4946850;28;20061;-80
2021/12/01 06:42:06;;;;;;;21.67;4.15;;;;;;;;;;4949772;28;20043;-80
2021/12/01 06:44:33;;;;;;;21.70;4.25;;;;;;;;;;4947548;28;20051;-80
2021/12/01 06:47:00;;;;;;;20.05;4.65;;;;;;;;;;4969907;28;20078;-80
2021/12/01 06:49:26;;;;;;;17.45;4.28;;;;;;;;;;4966694;28;20121;-80
2021/12/01 06:51:52;;;;;;;26.70;4.45;;;;;;;;;;4955414;28;20443;-80
2021/12/01 06:54:18;;;;;;;22.25;4.60;;;;;;;;;;4953293;28;20148;-78
2021/12/01 06:56:44;;;;;;;23.02;5.28;;;;;;;;;;4954943;28;20530;-81
2021/12/01 06:59:10;;;;;;;19.63;4.18;;;;;;;;;;4955879;28;20047;-80
2021/12/01 07:01:36;;;;;;;24.52;4.60;;;;;;;;;;4948612;28;20041;-80
2021/12/01 07:04:02;;;;;;;18.00;4.10;;;;;;;;;;4950288;28;20046;-80
2021/12/01 07:06:28;;;;;;;20.65;3.65;;;;;;;;;;4950482;28;20161;-80
2021/12/01 07:08:59;;;;;;;19.05;4.25;;;;;;;;;;4969630;28;20047;-80
2021/12/01 07:11:25;;;;;;;20.40;4.57;;;;;;;;;;4951799;28;20480;-80
2021/12/01 07:13:51;;;;;;;19.67;4.68;;;;;;;;;;4986682;28;20569;-81
2021/12/01 07:16:17;;;;;;;17.40;4.28;;;;;;;;;;4966725;28;20042;-80
2021/12/01 07:18:43;;;;;;;18.30;4.95;;;;;;;;;;4977494;28;20083;-80
2021/12/01 07:21:09;;;;;;;15.35;4.13;;;;;;;;;;4970196;28;20115;-80
2021/12/01 07:23:35;;;;;;;18.02;4.10;;;;;;;;;;4971678;28;20046;-81
2021/12/01 07:26:02;;;;;;;18.13;4.10;;;;;;;;;;4970260;28;20106;-81
2021/12/01 07:28:28;;;;;;;23.63;4.93;;;;;;;;;;4976219;28;20059;-81
2021/12/01 07:30:54;;;;;;;27.42;5.53;;;;;;;;;;4971986;28;20112;-82
2021/12/01 07:33:20;;;;;;;36.58;8.18;;;;;;;;;;4970921;28;20045;-79
2021/12/01 07:35:46;;;;;;;37.90;7.07;;;;;;;;;;4967467;28;20499;-79
2021/12/01 07:38:13;;;;;;;31.08;7.03;;;;;;;;;;4972926;28;20046;-79
2021/12/01 07:40:42;;;;;;;24.05;6.18;;;;;;;;;;4968058;28;20046;-80
2021/12/01 07:43:08;;;;;;;26.70;5.45;;;;;;;;;;4965111;28;20568;-81
2021/12/01 07:45:35;;;;;;;30.50;6.57;;;;;;;;;;4972516;28;20043;-80
2021/12/01 07:48:01;;;;;;;17.55;4.45;;;;;;;;;;4969569;28;20100;-82
2021/12/01 07:50:27;;;;;;;22.27;4.13;;;;;;;;;;4974678;28;20509;-81
2021/12/01 07:52:53;;;;;;;19.42;4.50;;;;;;;;;;4973642;28;20049;-78
2021/12/01 07:55:19;;;;;;;21.23;4.60;;;;;;;;;;4971855;28;20038;-80
2021/12/01 07:57:46;;;;;;;14.40;3.42;;;;;;;;;;4977235;28;20184;-80
2021/12/01 08:00:13;;;;;;;13.52;3.58;;;;;;;;;;4968663;28;20111;-79
2021/12/01 08:02:39;;;;;;;12.18;3.97;;;;;;;;;;4975924;28;20072;-81
2021/12/01 08:05:05;;;;;;;14.00;4.15;;;;;;;;;;4975790;28;20474;-78
2021/12/01 08:07:35;;;;;;;21.30;5.25;;;;;;;;;;4974520;28;20046;-79
2021/12/01 08:10:01;;;;;;;19.58;4.55;;;;;;;;;;4974983;28;20451;-79
2021/12/01 08:12:27;;;;;;;18.63;4.10;;;;;;;;;;4978580;28;20137;-80
2021/12/01 08:14:53;;;;;;;21.45;4.20;;;;;;;;;;5001183;28;20065;-80
2021/12/01 08:17:19;;;;;;;18.80;5.35;;;;;;;;;;4977562;28;20034;-80
2021/12/01 08:19:45;;;;;;;23.25;5.25;;;;;;;;;;4974810;28;20054;-81
2021/12/01 08:22:11;;;;;;;27.67;5.80;;;;;;;;;;4985806;28;20394;-80
2021/12/01 08:24:37;;;;;;;29.60;5.18;;;;;;;;;;4973550;28;20387;-80
2021/12/01 08:27:03;;;;;;;23.73;4.68;;;;;;;;;;4976190;28;20054;-80
2021/12/01 08:29:29;;;;;;;26.48;4.55;;;;;;;;;;4976024;28;20042;-80
2021/12/01 08:31:55;;;;;;;28.55;5.05;;;;;;;;;;4977312;28;20038;-80
2021/12/01 08:34:21;;;;;;;24.13;5.53;;;;;;;;;;4980504;28;20134;-81
2021/12/01 08:36:47;;;;;;;26.67;5.97;;;;;;;;;;4974957;28;20358;-79
2021/12/01 08:39:14;;;;;;;15.90;4.00;;;;;;;;;;4966309;28;20308;-80
2021/12/01 08:41:42;;;;;;;26.30;4.35;;;;;;;;;;4992460;28;20518;-81
2021/12/01 08:44:08;;;;;;;22.10;4.05;;;;;;;;;;4974264;28;20050;-81
2021/12/01 08:46:35;;;;;;;22.63;4.18;;;;;;;;;;4974564;28;20049;-80
2021/12/01 08:49:01;;;;;;;21.25;4.38;;;;;;;;;;4976717;28;20038;-80
2021/12/01 08:51:27;;;;;;;21.92;3.75;;;;;;;;;;4972727;28;20038;-79
2021/12/01 08:53:53;;;;;;;19.35;4.55;;;;;;;;;;4976126;28;20077;-80
2021/12/01 08:56:19;;;;;;;22.95;4.35;;;;;;;;;;4971516;28;20085;-80
2021/12/01 08:58:45;;;;;;;25.23;4.28;;;;;;;;;;4970954;28;20149;-79
2021/12/01 09:01:11;;;;;;;22.08;5.28;;;;;;;;;;4973736;28;20045;-79
2021/12/01 09:03:43;;;;;;;22.73;4.55;;;;;;;;;;4973907;28;20115;-82
2021/12/01 09:06:09;;;;;;;25.63;5.15;;;;;;;;;;4967318;28;20039;-81
2021/12/01 09:08:36;;;;;;;13.52;3.72;;;;;;;;;;4987718;28;20042;-79
2021/12/01 09:11:03;;;;;;;24.70;4.75;;;;;;;;;;4971121;28;20088;-80
2021/12/01 09:13:29;;;;;;;33.47;5.47;;;;;;;;;;4971717;28;20054;-81
2021/12/01 09:15:56;;;;;;;30.90;5.75;;;;;;;;;;4971781;28;20050;-80
2021/12/01 09:18:23;;;;;;;26.98;4.80;;;;;;;;;;4973131;28;20165;-79
2021/12/01 09:20:49;;;;;;;26.83;4.60;;;;;;;;;;4978994;28;20045;-77
2021/12/01 09:23:16;;;;;;;20.20;4.13;;;;;;;;;;4971101;28;20483;-79
2021/12/01 09:25:42;;;;;;;17.25;3.92;;;;;;;;;;4969327;28;20373;-79
2021/12/01 09:28:12;;;;;;;22.42;4.85;;;;;;;;;;4972885;28;20039;-78
2021/12/01 09:30:38;;;;;;;23.65;5.22;;;;;;;;;;4977384;28;20050;-79
2021/12/01 09:33:04;;;;;;;21.23;5.00;;;;;;;;;;4971955;28;20084;-81
2021/12/01 09:35:30;;;;;;;18.45;4.40;;;;;;;;;;4973976;28;20053;-80
2021/12/01 09:37:56;;;;;;;21.70;4.00;;;;;;;;;;4972273;28;20038;-79
2021/12/01 09:40:23;;;;;;;25.75;5.28;;;;;;;;;;4964521;28;20046;-80
2021/12/01 09:42:51;;;;;;;29.63;5.43;;;;;;;;;;4974774;28;20057;-81
2021/12/01 09:45:20;;;;;;;26.70;4.72;;;;;;;;;;4976913;28;20053;-80
2021/12/01 09:47:46;;;;;;;18.42;4.70;;;;;;;;;;4980270;28;20058;-79
2021/12/01 09:50:12;;;;;;;27.00;6.18;;;;;;;;;;4971870;28;20514;-79
2021/12/01 09:52:38;;;;;;;33.20;5.18;;;;;;;;;;4966472;28;20152;-81
2021/12/01 09:55:05;;;;;;;39.00;4.95;;;;;;;;;;4973254;28;20132;-78
2021/12/01 09:57:31;;;;;;;29.20;4.88;;;;;;;;;;4973564;28;20334;-79
2021/12/01 09:59:57;;;;;;;28.45;5.43;;;;;;;;;;4971598;28;20045;-79
2021/12/01 10:02:25;;;;;;;26.45;4.82;;;;;;;;;;4973634;28;20037;-79
2021/12/01 10:04:54;;;;;;;37.28;4.82;;;;;;;;;;4976438;28;20050;-81
2021/12/01 10:07:21;;;;;;;38.78;6.07;;;;;;;;;;4966957;28;20185;-80
2021/12/01 10:09:50;;;;;;;25.77;6.20;;;;;;;;;;4987293;28;20125;-80
2021/12/01 10:12:16;;;;;;;23.10;4.80;;;;;;;;;;4971876;28;20054;-79
2021/12/01 10:14:46;;;;;;;17.45;4.15;;;;;;;;;;4970979;28;20132;-79
2021/12/01 10:17:12;;;;;;;19.83;4.30;;;;;;;;;;4973509;28;20065;-80
2021/12/01 10:19:38;;;;;;;16.15;3.55;;;;;;;;;;4968802;28;20057;-79
2021/12/01 10:22:08;;;;;;;22.63;5.22;;;;;;;;;;4972314;28;20066;-79
2021/12/01 10:24:36;;;;;;;25.10;5.45;;;;;;;;;;4972295;28;20453;-85
2021/12/01 10:27:04;;;;;;;25.42;7.53;;;;;;;;;;4973909;28;20474;-84
2021/12/01 10:29:30;;;;;;;30.60;5.38;;;;;;;;;;4967957;28;20066;-80
2021/12/01 10:32:00;;;;;;;24.73;4.40;;;;;;;;;;4970144;28;20050;-79
2021/12/01 10:34:29;;;;;;;19.98;4.57;;;;;;;;;;4976147;28;20054;-80
2021/12/01 10:37:08;;;;;;;25.67;5.20;;;;;;;;;;4976455;28;20048;-78
2021/12/01 10:39:34;;;;;;;22.48;4.93;;;;;;;;;;4971695;28;20046;-79
2021/12/01 10:42:10;;;;;;;16.85;4.32;;;;;;;;;;4975022;28;20048;-80
2021/12/01 10:44:37;;;;;;;24.15;5.05;;;;;;;;;;4971654;28;20050;-78
2021/12/01 10:47:10;;;;;;;28.70;5.80;;;;;;;;;;4973572;28;20125;-79
2021/12/01 10:49:40;;;;;;;35.72;7.63;;;;;;;;;;4971104;28;20131;-79
2021/12/01 10:52:06;;;;;;;21.05;5.38;;;;;;;;;;4973356;28;20133;-80
2021/12/01 10:54:32;;;;;;;25.77;5.95;;;;;;;;;;4969332;28;20050;-79
2021/12/01 10:57:17;;;;;;;30.25;6.35;;;;;;;;;;4972981;28;20038;-81
2021/12/01 10:59:45;;;;;;;25.38;4.95;;;;;;;;;;4973370;28;20165;-80
2021/12/01 11:02:11;;;;;;;28.15;6.20;;;;;;;;;;4987476;28;20513;-79
2021/12/01 11:04:47;;;;;;;23.05;5.65;;;;;;;;;;4989517;28;20058;-80
2021/12/01 11:07:26;;;;;;;27.23;5.32;;;;;;;;;;4970183;28;20133;-80
2021/12/01 11:10:10;;;;;;;23.90;5.18;;;;;;;;;;4973796;28;20050;-81
2021/12/01 11:12:36;;;;;;;22.30;6.25;;;;;;;;;;4987016;28;20494;-79
2021/12/01 11:15:15;;;;;;;22.05;5.22;;;;;;;;;;4971422;28;20046;-79
2021/12/01 11:17:42;;;;;;;19.90;4.63;;;;;;;;;;4969603;28;20061;-80
2021/12/01 11:20:08;;;;;;;20.02;4.78;;;;;;;;;;4972389;28;20038;-79
2021/12/01 11:22:38;;;;;;;23.90;5.00;;;;;;;;;;4969437;28;20054;-80
2021/12/01 11:25:18;;;;;;;29.90;5.32;;;;;;;;;;4971545;28;20053;-80
2021/12/01 11:27:44;;;;;;;24.58;5.20;;;9.70;99.90;;;;;;4978133;28;20144;-79
2021/12/01 11:30:10;;;;;;;22.38;4.70;;;8.80;99.90;;;;;;4972416;28;20475;-81
2021/12/01 11:32:36;;;;;;;21.20;4.82;;;8.80;99.90;;;;;;4977282;28;20089;-80
2021/12/01 11:35:01;;;;;;;20.45;4.97;;;8.70;99.90;;;;;;4988157;28;20108;-78
2021/12/01 11:37:27;;;;;;;18.85;3.92;;;8.70;99.90;;;;;;4966946;28;20058;-81
2021/12/01 11:39:55;;;;;;;13.13;4.07;;;8.70;99.90;;;;;;4971336;28;20500;-82
2021/12/01 11:42:21;;;;;;;19.92;4.30;;;8.60;99.90;;;;;;4973060;28;20382;-79
2021/12/01 11:44:47;;;;;;;22.75;4.95;;;8.60;99.90;;;;;;4972545;28;20038;-80
2021/12/01 11:47:15;;;;;;;20.83;3.92;;;8.70;99.90;;;;;;4968290;28;20440;-80
2021/12/01 11:49:43;;;;;;;17.55;3.47;;;8.70;99.90;;;;;;4989223;28;20108;-79
2021/12/01 11:52:10;;;;;;;19.83;4.85;;;8.70;99.90;;;;;;4971814;28;20174;-80
2021/12/01 11:54:44;;;;;;;16.20;3.63;;;8.70;99.90;;;;;;4967543;28;20099;-81
2021/12/01 11:57:11;;;;;;;19.45;4.15;;;;;;;;;;4968601;28;20471;-79
2021/12/01 11:59:38;;;;;;;12.40;3.78;;;;;;;;;;4971290;28;20187;-81
2021/12/01 12:02:05;;;;;;;16.52;4.57;;;;;;;;;;4966732;28;20051;-79
2021/12/01 12:04:37;;;;;;;20.15;4.07;;;;;;;;;;4975278;28;20086;-80
2021/12/01 12:07:26;;;;;;;15.98;3.63;;;8.80;99.90;;;;;;4960021;28;20065;-80
2021/12/01 12:10:04;;;;;;;18.48;3.38;;;;;;;;;;4988743;28;20482;-79
2021/12/01 12:13:03;;;;;;;18.00;3.72;;;8.60;99.90;;;;;;4965376;28;20101;-80
2021/12/01 12:15:37;;;;;;;13.75;3.90;;;8.50;99.90;;;;;;4967983;28;20052;-81
2021/12/01 12:18:03;;;;;;;16.60;4.22;;;;;;;;;;4967846;28;20089;-79
2021/12/01 12:20:34;;;;;;;13.93;3.45;;;;;;;;;;4971578;28;20050;-80
2021/12/01 12:23:10;;;;;;;15.45;3.40;;;8.50;99.90;;;;;;4977965;28;20046;-78
2021/12/01 12:26:09;;;;;;;21.05;4.10;;;8.50;99.90;;;;;;4985405;28;20419;-81
2021/12/01 12:28:36;;;;;;;21.52;4.10;;;;;;;;;;4960970;28;20788;-82
2021/12/01 12:31:20;;;;;;;15.13;3.42;;;;;;;;;;4965436;28;20053;-79
2021/12/01 12:33:51;;;;;;;17.90;4.18;;;;;;;;;;4968296;28;20051;-79
2021/12/01 12:36:17;;;;;;;21.88;4.40;;;;;;;;;;4961579;28;20041;-79
2021/12/01 12:39:01;;;;;;;17.63;4.03;;;;;;;;;;4966101;28;20046;-81
2021/12/01 12:41:27;;;;;;;24.45;4.25;;;;;;;;;;4975144;28;20054;-80
2021/12/01 12:43:53;;;;;;;20.58;4.10;;;;;;;;;;4974877;28;20050;-79
2021/12/01 12:46:20;;;;;;;19.70;4.43;;;;;;;;;;4977607;28;20493;-82
2021/12/01 12:48:50;;;;;;;19.00;4.85;;;;;;;;;;4972296;28;20050;-81
2021/12/01 12:51:26;;;;;;;13.57;3.95;;;;;;;;;;4976048;28;20042;-82
2021/12/01 12:54:02;;;;;;;16.40;4.25;;;;;;;;;;4976127;28;20050;-82
2021/12/01 12:56:36;;;;;;;17.75;3.08;;;;;;;;;;4970138;28;20049;-81
2021/12/01 12:59:19;;;;;;;16.10;4.50;;;;;;;;;;4977569;28;20196;-81
2021/12/01 13:01:45;;;;;;;15.55;3.33;;;;;;;;;;4974705;28;20097;-82
2021/12/01 13:04:31;;;;;;;19.23;4.05;;;;;;;;;;4971413;28;20050;-80
2021/12/01 13:06:57;;;;;;;18.48;4.20;;;;;;;;;;4991885;28;20046;-81
2021/12/01 13:09:23;;;;;;;20.40;4.65;;;;;;;;;;4971296;28;20165;-81
2021/12/01 13:11:57;;;;;;;19.77;3.90;;;;;;;;;;4974348;28;20073;-81
2021/12/01 13:14:23;;;;;;;16.50;4.40;;;;;;;;;;4995303;28;20050;-82
2021/12/01 13:16:49;;;;;;;15.20;4.32;;;;;;;;;;4974627;28;20532;-82
2021/12/01 13:19:15;;;;;;;19.08;3.50;;;;;;;;;;4970962;28;20121;-81
2021/12/01 13:21:41;;;;;;;18.70;3.38;;;;;;;;;;4974036;28;20501;-81
2021/12/01 13:24:07;;;;;;;18.60;4.95;;;;;;;;;;4981181;28;20050;-80
2021/12/01 13:26:35;;;;;;;18.05;3.70;;;;;;;;;;4972368;28;20043;-81
2021/12/01 13:29:05;;;;;;;17.80;3.63;;;;;;;;;;4968816;28;20053;-80
2021/12/01 13:31:34;;;;;;;17.85;3.45;;;;;;;;;;4972039;28;20043;-81
2021/12/01 13:34:10;;;;;;;13.32;3.60;;;;;;;;;;4974736;28;20512;-80
2021/12/01 13:36:37;;;;;;;14.73;4.05;;;;;;;;;;4972111;28;20513;-82
2021/12/01 13:39:08;;;;;;;16.92;4.22;;;;;;;;;;4971407;28;20049;-81
2021/12/01 13:41:36;;;;;;;17.05;3.80;;;;;;;;;;4974850;28;20042;-81
2021/12/01 13:44:13;;;;;;;24.67;3.78;;;;;;;;;;4972009;28;20398;-83
2021/12/01 13:46:40;;;;;;;16.13;4.40;;;;;;;;;;4970708;28;20133;-86
2021/12/01 13:49:06;;;;;;;18.50;4.38;;;;;;;;;;4972970;28;20802;-79
2021/12/01 13:51:34;;;;;;;15.60;3.60;;;;;;;;;;4969293;28;20394;-80
2021/12/01 13:54:10;;;;;;;15.85;4.15;;;;;;;;;;4970149;28;20086;-81
2021/12/01 13:56:36;;;;;;;15.75;3.60;;;;;;;;;;4990023;28;20909;-81
2021/12/01 13:59:02;;;;;;;22.83;4.43;;;;;;;;;;4989526;28;20042;-80
2021/12/01 14:01:29;;;;;;;15.27;3.78;;;;;;;;;;4990796;28;20050;-80
2021/12/01 14:03:55;;;;;;;17.77;3.85;;;;;;;;;;4972963;28;20351;-82
2021/12/01 14:06:22;;;;;;;12.68;3.08;;;;;;;;;;4971394;28;20093;-79
2021/12/01 14:08:49;;;;;;;13.20;3.15;;;;;;;;;;4972940;28;20126;-79
2021/12/01 14:11:48;;;;;;;13.27;3.28;;;;;;;;;;4973086;28;20054;-80
2021/12/01 14:14:16;;;;;;;10.88;3.30;;;;;;;;;;4906067;28;20470;-80
2021/12/01 14:16:46;;;;;;;18.08;4.07;;;;;;;;;;4954037;28;20051;-79
2021/12/01 14:19:13;;;;;;;14.50;3.50;;;;;;;;;;4972672;28;20065;-80
2021/12/01 14:21:39;;;;;;;15.48;3.50;;;;;;;;;;4952256;28;20043;-79
2021/12/01 14:24:11;;;;;;;22.77;3.95;;;;;;;;;;4953572;28;20545;-79
2021/12/01 14:26:39;;;;;;;11.65;3.70;;;;;;;;;;4954866;28;20105;-78
2021/12/01 14:29:07;;;;;;;12.20;2.80;;;;;;;;;;4949630;28;20490;-80
2021/12/01 14:31:33;;;;;;;16.10;3.05;;;;;;;;;;4974156;28;20074;-80